createdAt,value
2023-05-04T00:00:54.449Z,92.41
2023-05-04T00:03:23.006Z,91.25
2023-05-04T00:05:51.072Z,90.23
2023-05-04T00:08:18.970Z,89.57
2023-05-04T00:10:46.813Z,89.17
2023-05-04T00:13:14.408Z,89.39
2023-05-04T00:15:42.611Z,88.78
2023-05-04T00:18:10.565Z,89.82
2023-05-04T00:20:39.576Z,91.05
2023-05-04T00:23:07.536Z,92.75
2023-05-04T00:25:34.912Z,94.43
2023-05-04T00:28:02.957Z,93.95
2023-05-04T00:30:30.863Z,94.16
2023-05-04T00:32:58.739Z,93.39
2023-05-04T00:35:26.372Z,91.46
2023-05-04T00:37:54.284Z,91.46
2023-05-04T00:40:22.450Z,90.24
2023-05-04T00:42:57.793Z,91.75
2023-05-04T00:45:30.265Z,91.72
2023-05-04T00:47:58.173Z,91.31
2023-05-04T00:50:26.206Z,91.20
2023-05-04T00:53:02.462Z,91.34
2023-05-04T00:55:30.416Z,92.00
2023-05-04T00:57:58.295Z,90.97
2023-05-04T01:00:25.805Z,91.08
2023-05-04T01:02:53.454Z,90.39
2023-05-04T01:05:21.419Z,90.33
2023-05-04T01:07:52.914Z,89.40
2023-05-04T01:10:24.601Z,88.81
2023-05-04T01:12:58.669Z,88.45
2023-05-04T01:15:26.301Z,87.87
2023-05-04T01:17:54.300Z,88.03
2023-05-04T01:20:21.959Z,87.50
2023-05-04T01:22:49.834Z,87.51
2023-05-04T01:25:17.878Z,88.46
2023-05-04T01:28:03.426Z,87.68
2023-05-04T01:30:32.879Z,87.32
2023-05-04T01:33:00.397Z,86.80
2023-05-04T01:35:28.134Z,86.91
2023-05-04T01:37:55.571Z,87.54
2023-05-04T01:40:23.331Z,86.96
2023-05-04T01:42:50.662Z,86.40
2023-05-04T01:45:19.338Z,86.51
2023-05-04T01:47:47.117Z,86.68
2023-05-04T01:50:14.923Z,86.79
2023-05-04T01:52:42.864Z,86.86
2023-05-04T01:55:10.835Z,86.55
2023-05-04T01:57:38.741Z,86.73
2023-05-04T02:00:08.810Z,87.51
2023-05-04T02:02:43.944Z,88.71
2023-05-04T02:05:11.802Z,89.13
2023-05-04T02:07:39.684Z,89.37
2023-05-04T02:10:10.671Z,89.38
2023-05-04T02:12:38.561Z,88.62
2023-05-04T02:15:09.112Z,88.84
2023-05-04T02:17:36.663Z,88.40
2023-05-04T02:20:12.023Z,88.43
2023-05-04T02:22:39.950Z,87.59
2023-05-04T02:25:08.838Z,86.82
2023-05-04T02:27:36.790Z,86.75
2023-05-04T02:30:05.825Z,87.79
2023-05-04T02:32:34.113Z,87.23
2023-05-04T02:35:01.666Z,86.28
2023-05-04T02:37:33.612Z,85.73
2023-05-04T02:40:01.559Z,85.31
2023-05-04T02:42:29.442Z,84.84
2023-05-04T02:44:57.372Z,83.49
2023-05-04T02:47:25.513Z,83.09
2023-05-04T02:49:52.962Z,83.32
2023-05-04T02:52:20.804Z,82.34
2023-05-04T02:54:49.022Z,81.73
2023-05-04T02:57:17.993Z,81.20
2023-05-04T02:59:45.508Z,80.97
2023-05-04T03:02:13.515Z,80.78
2023-05-04T03:05:01.426Z,82.47
2023-05-04T03:07:28.568Z,83.67
2023-05-04T03:09:56.585Z,83.74
2023-05-04T03:12:25.115Z,84.20
2023-05-04T03:14:52.968Z,85.06
2023-05-04T03:17:20.895Z,86.18
2023-05-04T03:19:48.743Z,85.72
2023-05-04T03:22:16.663Z,85.11
2023-05-04T03:24:44.685Z,84.12
2023-05-04T03:27:12.419Z,84.22
2023-05-04T03:29:40.643Z,83.60
2023-05-04T03:32:08.719Z,84.88
2023-05-04T03:34:36.501Z,85.65
2023-05-04T03:37:04.487Z,84.94
2023-05-04T03:39:33.410Z,85.36
2023-05-04T03:42:01.328Z,84.97
2023-05-04T03:44:29.297Z,85.25
2023-05-04T03:46:57.207Z,86.45
2023-05-04T03:49:25.014Z,86.88
2023-05-04T03:51:53.011Z,85.96
2023-05-04T03:54:20.783Z,86.14
2023-05-04T03:56:48.251Z,84.84
2023-05-04T03:59:16.257Z,85.23
2023-05-04T04:01:44.246Z,85.49
2023-05-04T04:04:11.852Z,85.34
2023-05-04T04:06:41.961Z,85.72
2023-05-04T04:09:10.861Z,85.78
2023-05-04T04:11:38.740Z,85.95
2023-05-04T04:14:06.412Z,86.02
2023-05-04T04:16:34.406Z,86.19
2023-05-04T04:19:02.157Z,86.51
2023-05-04T04:21:29.950Z,87.41
2023-05-04T04:23:57.858Z,87.15
2023-05-04T04:26:25.690Z,88.92
2023-05-04T04:28:53.563Z,89.66
2023-05-04T04:31:21.785Z,90.34
2023-05-04T04:33:50.679Z,90.23
2023-05-04T04:36:18.314Z,90.71
2023-05-04T04:38:46.459Z,90.79
2023-05-04T04:41:14.670Z,90.84
2023-05-04T04:43:42.539Z,91.16
2023-05-04T04:46:10.654Z,91.20
2023-05-04T04:48:38.591Z,90.34
2023-05-04T04:51:10.748Z,89.87
2023-05-04T04:53:38.971Z,89.32
2023-05-04T04:56:07.687Z,89.50
2023-05-04T04:58:35.187Z,89.11
2023-05-04T05:01:05.199Z,88.18
2023-05-04T05:03:33.982Z,88.41
2023-05-04T05:06:01.966Z,88.27
2023-05-04T05:08:29.975Z,88.57
2023-05-04T05:10:58.247Z,88.22
2023-05-04T05:13:25.886Z,87.68
2023-05-04T05:15:53.819Z,86.42
2023-05-04T05:18:21.526Z,85.94
2023-05-04T05:20:49.476Z,85.41
2023-05-04T05:23:17.510Z,85.13
2023-05-04T05:25:44.720Z,83.78
2023-05-04T05:28:14.040Z,83.00
2023-05-04T05:30:42.107Z,82.41
2023-05-04T05:33:10.276Z,82.21
2023-05-04T05:35:38.323Z,80.88
2023-05-04T05:38:08.698Z,79.36
2023-05-04T05:40:37.324Z,79.46
2023-05-04T05:43:06.008Z,79.06
2023-05-04T05:45:33.940Z,78.34
2023-05-04T05:48:01.499Z,77.90
2023-05-04T05:50:29.666Z,77.41
2023-05-04T05:52:57.550Z,77.02
2023-05-04T05:55:25.407Z,75.86
2023-05-04T05:57:53.338Z,75.22
2023-05-04T06:00:22.405Z,74.56
2023-05-04T06:02:50.156Z,73.61
2023-05-04T06:05:20.794Z,73.09
2023-05-04T06:07:48.306Z,72.55
2023-05-04T06:10:16.607Z,71.20
2023-05-04T06:12:44.536Z,70.35
2023-05-04T06:15:14.438Z,69.11
2023-05-04T06:17:42.335Z,68.31
2023-05-04T06:20:10.981Z,68.42
2023-05-04T06:22:38.685Z,67.55
2023-05-04T06:25:08.476Z,67.02
2023-05-04T06:27:36.078Z,65.82
2023-05-04T06:30:04.201Z,63.58
2023-05-04T06:32:32.241Z,60.24
2023-05-04T06:35:00.281Z,60.23
2023-05-04T06:37:28.445Z,59.64
2023-05-04T06:39:56.162Z,58.57
2023-05-04T06:42:24.190Z,58.06
2023-05-04T06:44:53.010Z,59.67
2023-05-04T06:47:20.510Z,55.15
2023-05-04T06:49:48.011Z,54.85
2023-05-04T06:52:15.922Z,54.24
2023-05-04T06:54:43.402Z,53.09
2023-05-04T06:57:11.584Z,52.54
2023-05-04T06:59:38.577Z,51.88
2023-05-04T07:02:06.546Z,53.01
2023-05-04T07:04:34.490Z,52.33
2023-05-04T07:07:02.448Z,52.50
2023-05-04T07:09:30.140Z,52.37
2023-05-04T07:11:58.089Z,53.03
2023-05-04T07:14:25.830Z,53.34
2023-05-04T07:16:53.617Z,53.70
2023-05-04T07:19:21.159Z,54.10
2023-05-04T07:21:48.770Z,53.82
2023-05-04T07:24:16.174Z,53.72
2023-05-04T07:26:44.151Z,54.27
2023-05-04T07:29:12.129Z,54.25
2023-05-04T07:31:39.616Z,50.30
2023-05-04T07:34:07.373Z,51.03
2023-05-04T07:36:37.719Z,49.39
2023-05-04T07:39:05.677Z,51.24
2023-05-04T07:41:33.532Z,50.01
2023-05-04T07:44:01.038Z,47.60
2023-05-04T07:46:29.181Z,47.08
2023-05-04T07:48:56.993Z,49.53
2023-05-04T07:51:24.966Z,47.03
2023-05-04T07:53:52.646Z,52.05
2023-05-04T07:56:20.090Z,52.86
2023-05-04T07:58:51.214Z,50.62
2023-05-04T08:01:18.748Z,48.20
2023-05-04T08:03:47.007Z,48.33
2023-05-04T08:06:14.980Z,47.94
2023-05-04T08:08:43.131Z,46.26
2023-05-04T08:11:20.410Z,46.46
2023-05-04T08:13:49.314Z,46.27
2023-05-04T08:16:17.196Z,47.56
2023-05-04T08:18:44.763Z,47.82
2023-05-04T08:21:12.737Z,48.22
2023-05-04T08:23:40.661Z,47.91
2023-05-04T08:26:08.564Z,48.14
2023-05-04T08:28:39.649Z,45.41
2023-05-04T08:31:07.788Z,44.89
2023-05-04T08:33:35.297Z,46.12
2023-05-04T08:36:04.548Z,48.68
2023-05-04T08:38:32.258Z,46.86
2023-05-04T08:41:05.802Z,46.15
2023-05-04T08:43:36.563Z,46.07
2023-05-04T08:46:04.923Z,47.73
2023-05-04T08:48:35.961Z,45.05
2023-05-04T08:51:04.841Z,46.21
2023-05-04T08:53:32.376Z,45.13
2023-05-04T08:56:04.715Z,46.73
2023-05-04T08:58:31.839Z,45.70
2023-05-04T09:01:00.632Z,46.31
2023-05-04T09:03:28.038Z,42.57
2023-05-04T09:06:17.788Z,43.12
2023-05-04T09:08:45.746Z,42.04
2023-05-04T09:11:13.870Z,42.96
2023-05-04T09:13:43.188Z,45.32
2023-05-04T09:16:10.786Z,45.59
2023-05-04T09:18:37.929Z,45.00
2023-05-04T09:21:09.101Z,47.55
2023-05-04T09:23:51.943Z,45.15
2023-05-04T09:26:33.108Z,42.85
2023-05-04T09:29:13.807Z,43.75
2023-05-04T09:31:49.202Z,42.64
2023-05-04T09:34:17.146Z,43.16
2023-05-04T09:36:44.168Z,42.88
2023-05-04T09:39:13.301Z,42.95
2023-05-04T09:41:41.846Z,42.95
2023-05-04T09:44:18.471Z,42.96
2023-05-04T09:46:59.231Z,41.77
2023-05-04T09:49:37.714Z,40.59
2023-05-04T09:52:06.416Z,41.22
2023-05-04T09:54:35.560Z,40.62
2023-05-04T09:57:15.838Z,42.36
2023-05-04T09:59:43.571Z,40.90
2023-05-04T10:02:22.144Z,42.32
2023-05-04T10:04:51.327Z,41.34
2023-05-04T10:07:19.352Z,41.08
2023-05-04T10:09:47.639Z,41.35
2023-05-04T10:12:17.410Z,42.50
2023-05-04T10:14:47.015Z,42.27
2023-05-04T10:17:36.174Z,39.90
2023-05-04T10:20:27.756Z,41.66
2023-05-04T10:23:22.531Z,41.75
2023-05-04T10:26:28.282Z,41.61
2023-05-04T10:29:23.452Z,40.79
2023-05-04T10:31:51.120Z,41.54
2023-05-04T10:34:31.886Z,41.76
2023-05-04T10:36:59.360Z,41.77
2023-05-04T10:39:55.474Z,42.22
2023-05-04T10:42:22.682Z,41.01
2023-05-04T10:45:15.766Z,42.73
2023-05-04T10:47:43.401Z,42.12
2023-05-04T10:50:12.315Z,43.30
2023-05-04T10:52:46.198Z,43.86
2023-05-04T10:55:13.890Z,42.89
2023-05-04T10:57:52.893Z,40.77
2023-05-04T11:00:20.639Z,41.75
2023-05-04T11:02:48.582Z,40.07
2023-05-04T11:05:20.620Z,39.93
2023-05-04T11:07:52.998Z,41.56
2023-05-04T11:10:45.043Z,41.94
2023-05-04T11:13:13.109Z,42.46
2023-05-04T11:15:47.506Z,43.32
2023-05-04T11:18:14.534Z,42.11
2023-05-04T11:20:42.693Z,41.96
2023-05-04T11:23:10.482Z,43.08
2023-05-04T11:25:38.047Z,42.77
2023-05-04T11:28:06.752Z,42.80
2023-05-04T11:30:35.131Z,42.00
2023-05-04T11:33:05.346Z,42.16
2023-05-04T11:35:33.306Z,43.13
2023-05-04T11:38:01.082Z,42.63
2023-05-04T11:40:29.217Z,42.64
2023-05-04T11:42:57.602Z,42.56
2023-05-04T11:45:27.637Z,42.40
2023-05-04T11:47:56.774Z,39.30
2023-05-04T11:50:24.695Z,39.45
2023-05-04T11:52:52.194Z,38.33
2023-05-04T11:55:27.377Z,38.37
2023-05-04T11:57:58.846Z,38.14
2023-05-04T12:00:39.859Z,36.07
2023-05-04T12:03:08.358Z,35.98
2023-05-04T12:05:36.301Z,34.80
2023-05-04T12:08:03.814Z,35.10
2023-05-04T12:10:34.969Z,31.05
2023-05-04T12:13:15.697Z,32.84
2023-05-04T12:15:44.054Z,32.39
2023-05-04T12:18:21.883Z,32.85
2023-05-04T12:20:49.723Z,32.43
2023-05-04T12:23:17.807Z,31.61
2023-05-04T12:25:57.334Z,31.01
2023-05-04T12:28:27.034Z,29.87
2023-05-04T12:30:54.508Z,31.21
2023-05-04T12:33:22.226Z,27.95
2023-05-04T12:35:55.571Z,27.63
2023-05-04T12:38:23.232Z,28.23
2023-05-04T12:40:50.478Z,27.75
2023-05-04T12:43:20.890Z,27.26
2023-05-04T12:45:49.327Z,26.93
2023-05-04T12:48:17.306Z,26.70
2023-05-04T12:50:45.858Z,26.61
2023-05-04T12:53:13.317Z,25.71
2023-05-04T12:55:40.679Z,25.72
2023-05-04T12:58:08.783Z,25.54
2023-05-04T13:00:37.476Z,25.03
2023-05-04T13:03:05.777Z,23.89
2023-05-04T13:05:33.779Z,23.44
2023-05-04T13:08:01.567Z,24.32
2023-05-04T13:10:29.724Z,24.74
2023-05-04T13:12:57.412Z,23.13
2023-05-04T13:15:25.290Z,23.63
2023-05-04T13:17:53.946Z,24.18
2023-05-04T13:20:22.691Z,23.99
2023-05-04T13:22:51.662Z,24.51
2023-05-04T13:25:19.318Z,24.20
2023-05-04T13:27:47.082Z,22.38
2023-05-04T13:30:18.403Z,23.60
2023-05-04T13:32:46.294Z,23.43
2023-05-04T13:35:14.447Z,22.68
2023-05-04T13:37:42.290Z,22.14
2023-05-04T13:40:12.508Z,22.49
2023-05-04T13:42:39.989Z,22.52
2023-05-04T13:45:11.249Z,23.18
2023-05-04T13:47:40.360Z,22.54
2023-05-04T13:50:10.024Z,22.16
2023-05-04T13:52:37.871Z,22.13
2023-05-04T13:55:07.550Z,22.53
2023-05-04T13:57:35.263Z,22.86
2023-05-04T14:00:07.867Z,23.15
2023-05-04T14:02:36.268Z,22.64
2023-05-04T14:05:08.601Z,22.07
2023-05-04T14:07:36.482Z,23.47
2023-05-04T14:10:04.731Z,23.63
2023-05-04T14:12:32.944Z,22.03
2023-05-04T14:15:01.404Z,21.99
2023-05-04T14:17:29.404Z,21.69
2023-05-04T14:19:58.950Z,22.60
2023-05-04T14:22:26.710Z,22.07
2023-05-04T14:24:54.527Z,22.90
2023-05-04T14:27:22.727Z,23.16
2023-05-04T14:29:50.566Z,22.53
2023-05-04T14:32:18.342Z,22.38
2023-05-04T14:34:46.656Z,22.30
2023-05-04T14:37:14.326Z,22.46
2023-05-04T14:39:42.494Z,22.59
2023-05-04T14:42:10.433Z,22.00
2023-05-04T14:44:38.382Z,21.69
2023-05-04T14:47:07.782Z,22.23
2023-05-04T14:49:37.534Z,22.58
2023-05-04T14:52:06.260Z,22.35
2023-05-04T14:54:33.789Z,21.57
2023-05-04T14:57:01.781Z,21.72
2023-05-04T14:59:32.167Z,21.93
2023-05-04T15:02:00.015Z,22.40
2023-05-04T15:04:27.800Z,22.01
2023-05-04T15:06:55.450Z,21.94
2023-05-04T15:09:22.937Z,22.29
2023-05-04T15:11:50.931Z,22.43
2023-05-04T15:14:18.356Z,23.13
2023-05-04T15:16:45.437Z,23.51
2023-05-04T15:19:12.828Z,23.78
2023-05-04T15:21:40.422Z,23.53
2023-05-04T15:24:08.732Z,24.41
2023-05-04T15:26:36.666Z,23.55
2023-05-04T15:29:04.169Z,24.67
2023-05-04T15:31:31.732Z,25.38
2023-05-04T15:34:00.876Z,25.89
2023-05-04T15:36:28.493Z,26.16
2023-05-04T15:38:55.959Z,26.05
2023-05-04T15:41:23.554Z,27.03
2023-05-04T15:43:51.072Z,27.92
2023-05-04T15:46:18.515Z,28.21
2023-05-04T15:48:46.042Z,29.03
2023-05-04T15:51:13.914Z,29.14
2023-05-04T15:53:44.819Z,29.23
2023-05-04T15:56:15.006Z,29.36
2023-05-04T15:58:42.857Z,29.13
2023-05-04T16:01:14.108Z,28.58
2023-05-04T16:03:43.642Z,27.76
2023-05-04T16:06:12.766Z,27.29
2023-05-04T16:08:40.314Z,26.46
2023-05-04T16:11:08.081Z,25.37
2023-05-04T16:13:36.219Z,25.11
2023-05-04T16:16:05.743Z,25.03
2023-05-04T16:18:33.607Z,24.01
2023-05-04T16:21:01.610Z,24.99
2023-05-04T16:23:29.196Z,24.86
2023-05-04T16:25:56.669Z,26.55
2023-05-04T16:28:24.453Z,26.23
2023-05-04T16:30:52.644Z,27.59
2023-05-04T16:33:20.327Z,28.45
2023-05-04T16:35:48.167Z,28.89
2023-05-04T16:38:16.293Z,30.31
2023-05-04T16:40:44.546Z,31.15
2023-05-04T16:43:12.977Z,31.09
2023-05-04T16:45:40.247Z,31.33
2023-05-04T16:48:07.968Z,31.81
2023-05-04T16:50:35.986Z,31.98
2023-05-04T16:53:03.879Z,32.23
2023-05-04T16:55:31.652Z,32.26
2023-05-04T16:57:59.788Z,32.58
2023-05-04T17:00:27.284Z,32.63
2023-05-04T17:02:54.882Z,32.28
2023-05-04T17:05:22.941Z,32.96
2023-05-04T17:07:51.821Z,32.48
2023-05-04T17:10:19.823Z,31.82
2023-05-04T17:12:47.720Z,32.16
2023-05-04T17:15:15.360Z,32.40
2023-05-04T17:17:43.263Z,31.21
2023-05-04T17:20:15.082Z,31.06
2023-05-04T17:22:43.395Z,31.04
2023-05-04T17:25:12.082Z,32.19
2023-05-04T17:27:39.968Z,33.34
2023-05-04T17:30:10.655Z,33.83
2023-05-04T17:32:38.888Z,34.85
2023-05-04T17:35:16.409Z,35.50
2023-05-04T17:37:51.795Z,36.15
2023-05-04T17:40:19.003Z,37.18
2023-05-04T17:42:46.838Z,37.53
2023-05-04T17:45:14.653Z,38.06
2023-05-04T17:47:46.500Z,38.75
2023-05-04T17:50:14.490Z,39.20
2023-05-04T17:52:42.384Z,40.19
2023-05-04T17:55:10.875Z,40.60
2023-05-04T17:57:38.745Z,41.15
2023-05-04T18:00:10.856Z,41.27
2023-05-04T18:02:38.916Z,41.39
2023-05-04T18:05:10.342Z,42.50
2023-05-04T18:07:38.601Z,42.83
2023-05-04T18:10:08.160Z,43.46
2023-05-04T18:12:37.804Z,43.85
2023-05-04T18:15:09.114Z,44.03
2023-05-04T18:17:40.089Z,44.22
2023-05-04T18:20:10.788Z,44.62
2023-05-04T18:22:38.571Z,45.12
2023-05-04T18:25:09.007Z,46.37
2023-05-04T18:27:36.664Z,46.84
2023-05-04T18:30:06.426Z,48.01
2023-05-04T18:32:34.508Z,48.42
2023-05-04T18:35:01.763Z,48.87
2023-05-04T18:37:32.165Z,49.48
2023-05-04T18:40:00.279Z,50.28
2023-05-04T18:42:28.320Z,50.81
2023-05-04T18:44:56.279Z,51.18
2023-05-04T18:47:23.742Z,51.95
2023-05-04T18:49:52.473Z,52.31
2023-05-04T18:52:20.402Z,52.91
2023-05-04T18:54:48.122Z,53.21
2023-05-04T18:57:16.134Z,53.12
2023-05-04T18:59:43.503Z,53.71
2023-05-04T19:02:11.143Z,53.89
2023-05-04T19:04:39.057Z,54.04
2023-05-04T19:07:06.342Z,54.02
2023-05-04T19:09:34.302Z,54.60
2023-05-04T19:12:02.199Z,54.98
2023-05-04T19:14:31.311Z,55.24
2023-05-04T19:17:00.723Z,55.85
2023-05-04T19:19:28.508Z,56.47
2023-05-04T19:21:56.123Z,57.37
2023-05-04T19:24:24.232Z,57.03
2023-05-04T19:26:51.896Z,56.86
2023-05-04T19:29:19.640Z,57.90
2023-05-04T19:31:55.177Z,58.50
2023-05-04T19:34:23.126Z,60.19
2023-05-04T19:36:50.173Z,62.04
2023-05-04T19:39:18.346Z,62.97
2023-05-04T19:41:46.224Z,62.44
2023-05-04T19:44:14.082Z,63.17
2023-05-04T19:46:42.615Z,64.28
2023-05-04T19:49:11.680Z,64.76
2023-05-04T19:51:39.598Z,63.80
2023-05-04T19:54:07.938Z,65.67
2023-05-04T19:56:36.285Z,67.79
2023-05-04T19:59:04.140Z,70.35
2023-05-04T20:01:32.562Z,69.66
2023-05-04T20:04:00.517Z,69.45
2023-05-04T20:06:28.366Z,69.80
2023-05-04T20:08:56.285Z,70.30
2023-05-04T20:11:23.724Z,69.39
2023-05-04T20:13:51.984Z,69.59
2023-05-04T20:16:20.868Z,70.95
2023-05-04T20:18:48.739Z,72.42
2023-05-04T20:21:16.164Z,72.02
2023-05-04T20:23:43.725Z,72.39
2023-05-04T20:26:11.563Z,72.60
2023-05-04T20:28:39.210Z,72.14
2023-05-04T20:31:07.658Z,71.04
2023-05-04T20:33:36.034Z,70.53
2023-05-04T20:36:05.078Z,69.75
2023-05-04T20:38:33.479Z,69.37
2023-05-04T20:41:08.026Z,68.36
2023-05-04T20:43:36.633Z,67.65
2023-05-04T20:46:07.585Z,67.26
2023-05-04T20:48:35.760Z,66.92
2023-05-04T20:51:14.056Z,66.73
2023-05-04T20:53:42.845Z,67.52
2023-05-04T20:56:10.806Z,67.34
2023-05-04T20:58:38.455Z,67.17
2023-05-04T21:01:06.933Z,68.44
2023-05-04T21:03:35.327Z,68.44
2023-05-04T21:06:02.779Z,68.03
2023-05-04T21:08:30.467Z,67.71
2023-05-04T21:10:58.755Z,67.94
2023-05-04T21:13:26.824Z,67.95
2023-05-04T21:15:54.799Z,67.62
2023-05-04T21:18:22.637Z,67.96
2023-05-04T21:20:50.607Z,67.91
2023-05-04T21:23:18.584Z,68.24
2023-05-04T21:25:46.527Z,68.14
2023-05-04T21:28:14.586Z,68.02
2023-05-04T21:30:46.072Z,68.37
2023-05-04T21:33:13.904Z,69.15
2023-05-04T21:35:41.449Z,68.95
2023-05-04T21:38:12.858Z,69.19
2023-05-04T21:40:40.862Z,69.41
2023-05-04T21:43:08.842Z,69.48
2023-05-04T21:45:36.873Z,69.22
2023-05-04T21:48:05.434Z,69.21
2023-05-04T21:50:33.369Z,69.56
2023-05-04T21:53:00.850Z,69.71
2023-05-04T21:55:30.420Z,69.69
2023-05-04T21:58:18.111Z,69.88
2023-05-04T22:00:45.644Z,69.84
2023-05-04T22:03:13.131Z,69.82
2023-05-04T22:05:48.429Z,69.80
2023-05-04T22:08:16.259Z,69.74
2023-05-04T22:10:44.225Z,70.01
2023-05-04T22:13:12.405Z,70.01
2023-05-04T22:15:49.496Z,69.82
2023-05-04T22:18:18.493Z,69.96
2023-05-04T22:20:46.339Z,70.07
2023-05-04T22:23:14.138Z,70.00
2023-05-04T22:25:41.996Z,70.22
2023-05-04T22:28:09.825Z,69.84
2023-05-04T22:30:37.436Z,69.93
2023-05-04T22:33:05.574Z,69.87
2023-05-04T22:35:33.121Z,69.97
2023-05-04T22:38:00.534Z,70.27
2023-05-04T22:40:28.668Z,70.28
2023-05-04T22:42:56.256Z,71.00
2023-05-04T22:45:24.511Z,70.67
2023-05-04T22:47:59.692Z,70.58
2023-05-04T22:50:28.274Z,71.24
2023-05-04T22:52:56.079Z,71.70
2023-05-04T22:55:24.150Z,71.39
2023-05-04T22:57:52.287Z,71.14
2023-05-04T23:00:22.109Z,71.69
2023-05-04T23:02:57.690Z,72.22
2023-05-04T23:05:25.890Z,71.95
2023-05-04T23:07:53.476Z,72.74
2023-05-04T23:10:21.489Z,72.71
2023-05-04T23:12:49.295Z,72.58
2023-05-04T23:15:18.251Z,72.17
2023-05-04T23:17:46.159Z,72.77
2023-05-04T23:20:14.471Z,72.74
2023-05-04T23:22:42.304Z,73.25
2023-05-04T23:25:10.594Z,73.48
2023-05-04T23:27:39.498Z,73.94
2023-05-04T23:30:10.591Z,74.30
2023-05-04T23:32:42.489Z,74.79
2023-05-04T23:35:10.845Z,74.13
2023-05-04T23:37:38.574Z,74.00
2023-05-04T23:40:13.008Z,74.16
2023-05-04T23:42:40.955Z,74.82
2023-05-04T23:45:11.700Z,75.13
2023-05-04T23:47:39.216Z,75.41
2023-05-04T23:50:10.334Z,76.12
2023-05-04T23:52:38.034Z,76.01
2023-05-04T23:55:06.715Z,76.24
2023-05-04T23:57:34.744Z,76.04
